Time;durP1;ratioP1;P1;durP2;ratioP2;P2;SDS_P1;SDS_P2;PMS_P1;PMS_P2;Temp;Humidity;BMP_temperature;BMP_pressure;BME280_temperature;BME280_humidity;BME280_pressure;Samples;Min_cycle;Max_cycle;Signal;HPM_P1;HPM_P2
2023/03/28 00:04:37;;;;;;;6.20;3.25;;;2.70;99.90;;;;;;20828934;28;20499;-79
2023/03/28 00:14:38;;;;;;;8.25;3.20;;;2.50;99.90;;;;;;20827910;28;20110;-79
2023/03/28 00:24:39;;;;;;;8.20;2.97;;;2.20;99.90;;;;;;20829621;28;20151;-79
2023/03/28 00:34:40;;;;;;;10.77;3.03;;;1.90;99.90;;;;;;20828220;28;20032;-79
2023/03/28 00:44:47;;;;;;;13.05;4.63;;;1.60;99.90;;;;;;20826392;28;20048;-78
2023/03/28 00:54:51;;;;;;;6.85;3.63;;;2.00;99.90;;;;;;20825431;28;20468;-78
2023/03/28 01:04:59;;;;;;;13.85;3.55;;;2.00;99.90;;;;;;20831312;28;20487;-79
2023/03/28 01:15:01;;;;;;;13.27;6.43;;;2.10;99.90;;;;;;20822925;28;20060;-78
2023/03/28 01:25:42;;;;;;;18.77;7.38;;;2.00;99.90;;;;;;20839433;28;20141;-79
2023/03/28 01:36:20;;;;;;;20.20;9.82;;;1.80;99.90;;;;;;20838107;28;20117;-79
2023/03/28 01:46:29;;;;;;;30.73;12.20;;;1.80;99.90;;;;;;20822290;28;20037;-78
2023/03/28 01:56:38;;;;;;;29.20;13.02;;;1.70;99.90;;;;;;20834711;28;20997;-79
2023/03/28 02:06:41;;;;;;;22.17;10.95;;;1.70;99.90;;;;;;20840507;28;20714;-79
2023/03/28 02:16:53;;;;;;;12.65;6.38;;;1.80;99.90;;;;;;20824298;28;20037;-79
2023/03/28 02:27:11;;;;;;;14.07;6.80;;;1.60;99.90;;;;;;20839560;28;20395;-79
2023/03/28 02:38:01;;;;;;;14.27;6.35;;;1.00;99.90;;;;;;20842225;28;20051;-79
2023/03/28 02:48:28;;;;;;;11.95;5.07;;;0.80;99.90;;;;;;20847002;28;21516;-79
2023/03/28 02:58:52;;;;;;;10.50;4.13;;;0.90;99.90;;;;;;20819396;28;20045;-80
2023/03/28 03:08:53;;;;;;;12.60;5.15;;;0.70;99.90;;;;;;20836284;28;20029;-79
2023/03/28 03:18:56;;;;;;;10.32;5.53;;;0.30;99.90;;;;;;20833119;28;20846;-78
2023/03/28 03:28:57;;;;;;;10.65;5.10;;;0.30;99.90;;;;;;20830983;28;20715;-78
2023/03/28 03:39:00;;;;;;;10.10;5.50;;;0.40;99.90;;;;;;20832206;28;20033;-78
2023/03/28 03:49:02;;;;;;;10.50;5.30;;;-0.20;99.90;;;;;;20825987;28;20037;-78
2023/03/28 03:59:03;;;;;;;10.50;4.88;;;-0.50;99.90;;;;;;20830810;28;20037;-78
2023/03/28 04:09:06;;;;;;;9.35;4.93;;;-0.60;99.90;;;;;;20831159;28;20079;-78
2023/03/28 04:19:26;;;;;;;9.02;4.45;;;-0.60;99.90;;;;;;20839694;28;20064;-77
2023/03/28 04:29:30;;;;;;;9.88;4.07;;;-0.40;99.90;;;;;;20825092;28;20038;-76
2023/03/28 04:39:57;;;;;;;8.13;4.45;;;-0.20;99.90;;;;;;20811421;28;20041;-78
2023/03/28 04:50:20;;;;;;;8.32;4.10;;;-0.60;99.90;;;;;;20769507;23;20438;-76
2023/03/28 05:00:21;;;;;;;6.28;3.88;;;-0.40;99.90;;;;;;20740100;28;20050;-76
2023/03/28 05:10:45;;;;;;;26.80;9.52;;;-0.60;99.90;;;;;;20756231;28;20069;-76
2023/03/28 05:20:46;;;;;;;8.27;4.22;;;-0.40;99.90;;;;;;20770143;28;20500;-75
2023/03/28 05:30:47;;;;;;;8.40;4.32;;;-0.40;99.90;;;;;;20750305;28;20120;-77
2023/03/28 05:40:49;;;;;;;9.02;4.70;;;-0.60;99.90;;;;;;20775918;28;21045;-79
2023/03/28 05:50:50;;;;;;;7.13;4.50;;;-0.50;99.90;;;;;;20751181;28;20079;-78
2023/03/28 06:00:51;;;;;;;5.90;3.15;;;-0.10;99.90;;;;;;20776926;28;20064;-77
2023/03/28 06:10:52;;;;;;;9.20;4.32;;;0.00;99.90;;;;;;20766874;28;20092;-78
2023/03/28 06:20:59;;;;;;;8.30;3.60;;;0.80;99.90;;;;;;20771366;28;20101;-78
2023/03/28 06:31:00;;;;;;;8.32;3.90;;;1.00;99.90;;;;;;20756616;28;20121;-78
2023/03/28 06:41:00;;;;;;;11.00;5.32;;;1.80;99.90;;;;;;20785317;28;20041;-79
2023/03/28 06:51:02;;;;;;;7.97;4.07;;;2.70;99.90;;;;;;20762902;28;20025;-78
2023/03/28 07:01:04;;;;;;;7.72;4.07;;;3.20;99.90;;;;;;20767476;28;20421;-78
2023/03/28 07:11:23;;;;;;;16.25;5.32;;;3.70;99.90;;;;;;20769614;28;20064;-78
2023/03/28 07:21:24;;;;;;;8.35;4.35;;;4.70;99.90;;;;;;20773024;28;20044;-79
2023/03/28 07:31:29;;;;;;;7.13;4.60;;;5.40;99.90;;;;;;20773376;28;20146;-79
2023/03/28 07:41:33;;;;;;;12.00;4.28;;;5.20;99.90;;;;;;20775742;28;20061;-78
2023/03/28 07:51:33;;;;;;;;;;;5.90;99.90;;;;;;20761144;28;20811;-79
2023/03/28 08:01:34;;;;;;;9.02;4.60;;;6.10;99.90;;;;;;20744148;28;19921;-78
2023/03/28 08:11:38;;;;;;;9.88;4.15;;;6.60;99.90;;;;;;20759410;28;20068;-78
2023/03/28 08:21:39;;;;;;;9.60;4.53;;;7.20;99.90;;;;;;20741800;28;20095;-79
2023/03/28 08:31:40;;;;;;;;;;;7.70;99.90;;;;;;20763049;28;20038;-78
2023/03/28 08:42:05;;;;;;;4.53;2.10;;;9.00;99.90;;;;;;20747795;28;19921;-77
2023/03/28 08:52:12;;;;;;;3.97;2.50;;;9.30;99.90;;;;;;20762050;28;20034;-78
2023/03/28 09:02:21;;;;;;;5.20;2.70;;;10.00;99.90;;;;;;20760282;28;20034;-78
2023/03/28 09:12:33;;;;;;;5.55;2.65;;;10.80;99.90;;;;;;20773126;28;20049;-78
2023/03/28 09:22:42;;;;;;;5.72;2.35;;;11.10;99.90;;;;;;20763831;28;20116;-78
2023/03/28 09:32:44;;;;;;;3.67;2.03;;;11.70;99.90;;;;;;20773998;28;20116;-77
2023/03/28 09:43:03;;;;;;;8.20;2.90;;;12.40;99.90;;;;;;20774870;28;20036;-78
2023/03/28 09:53:26;;;;;;;5.38;2.17;;;10.40;99.90;;;;;;20773144;28;20064;-78
2023/03/28 10:03:31;;;;;;;4.60;2.03;;;11.00;99.90;;;;;;20765644;28;20059;-78
2023/03/28 10:13:44;;;;;;;3.80;2.03;;;11.60;99.90;;;;;;20768404;28;20030;-78
2023/03/28 10:24:01;;;;;;;3.43;1.77;;;12.20;99.90;;;;;;20775714;28;20053;-76
2023/03/28 10:34:02;;;;;;;5.28;2.13;;;12.50;99.90;;;;;;20780514;28;20041;-77
2023/03/28 10:44:34;;;;;;;6.35;2.22;;;13.60;99.40;;;;;;20834948;23;20068;-79
2023/03/28 10:54:55;;;;;;;4.15;1.90;;;13.60;98.60;;;;;;20914225;28;20487;-79
2023/03/28 11:05:12;;;;;;;;;;;14.10;98.00;;;;;;20908548;28;20059;-80
2023/03/28 11:15:15;;;;;;;4.80;1.92;;;13.80;97.60;;;;;;20890103;28;19912;-79
2023/03/28 11:26:01;;;;;;;4.32;2.10;;;13.50;95.70;;;;;;20912981;28;20056;-80
2023/03/28 11:36:39;;;;;;;7.82;2.17;;;11.50;98.30;;;;;;20897042;28;20089;-80
2023/03/28 11:46:42;;;;;;;3.80;1.83;;;12.00;96.30;;;;;;20887674;28;20029;-80
2023/03/28 11:56:53;;;;;;;3.58;1.80;;;14.20;97.70;;;;;;20911731;28;20510;-79
2023/03/28 12:07:26;;;;;;;3.53;1.90;;;15.10;95.20;;;;;;20894330;28;20037;-79
2023/03/28 12:17:35;;;;;;;5.75;2.38;;;15.40;95.80;;;;;;20907170;28;20041;-79
2023/03/28 12:28:00;;;;;;;4.63;2.67;;;14.80;93.40;;;;;;20903384;28;20020;-80
2023/03/28 12:38:31;;;;;;;6.90;3.13;;;14.80;93.50;;;;;;20906061;28;20025;-79
2023/03/28 12:49:01;;;;;;;6.07;2.17;;;15.30;94.20;;;;;;20901498;28;20059;-79
2023/03/28 12:59:35;;;;;;;4.38;2.50;;;15.00;92.80;;;;;;20913176;28;20029;-79
2023/03/28 13:09:50;;;;;;;3.20;2.30;;;14.80;94.20;;;;;;20909768;28;20029;-80
2023/03/28 13:19:53;;;;;;;5.22;2.80;;;13.80;92.90;;;;;;20930773;28;20415;-79
2023/03/28 13:30:05;;;;;;;4.05;2.22;;;12.60;93.40;;;;;;20921682;28;20033;-80
2023/03/28 13:40:58;;;;;;;4.13;2.30;;;13.10;94.90;;;;;;20919365;28;20686;-79
2023/03/28 13:51:05;;;;;;;4.13;2.63;;;14.40;93.00;;;;;;20878402;28;20044;-79
2023/03/28 14:01:23;;;;;;;6.78;3.10;;;13.50;92.30;;;;;;20917015;28;20109;-80
2023/03/28 14:11:43;;;;;;;3.33;2.22;;;13.90;92.90;;;;;;20918743;28;20035;-80
2023/03/28 14:21:45;;;;;;;5.20;2.45;;;13.90;93.00;;;;;;20913804;28;20483;-79
2023/03/28 14:31:47;;;;;;;;;;;15.20;92.30;;;;;;20918900;28;20029;-79
2023/03/28 14:41:48;;;;;;;5.13;2.20;;;14.60;91.20;;;;;;20901003;28;19921;-80
2023/03/28 14:51:57;;;;;;;4.27;2.37;;;14.40;91.40;;;;;;20913654;28;20071;-80
2023/03/28 15:02:00;;;;;;;4.55;2.13;;;14.50;90.60;;;;;;20909642;28;20107;-80
2023/03/28 15:12:06;;;;;;;3.25;2.05;;;14.00;89.70;;;;;;20913306;28;21264;-80
2023/03/28 15:22:11;;;;;;;4.15;2.08;;;13.70;91.30;;;;;;20927545;28;20052;-80
2023/03/28 15:32:15;;;;;;;5.68;2.13;;;14.30;90.90;;;;;;20908023;28;20025;-80
2023/03/28 15:42:22;;;;;;;4.90;2.50;;;13.50;90.90;;;;;;20895836;28;20661;-80
2023/03/28 15:52:23;;;;;;;4.38;2.30;;;13.60;91.00;;;;;;20913537;28;20119;-80
2023/03/28 16:02:24;;;;;;;4.93;2.60;;;13.90;91.00;;;;;;20910253;28;20396;-79
2023/03/28 16:12:26;;;;;;;3.80;2.03;;;13.30;90.90;;;;;;20920187;28;20032;-80
2023/03/28 16:22:46;;;;;;;5.80;2.33;;;12.60;91.70;;;;;;20918296;28;20111;-80
2023/03/28 16:32:46;;;;;;;4.85;1.98;;;12.10;91.60;;;;;;20918077;28;20029;-80
2023/03/28 16:42:48;;;;;;;6.73;2.30;;;12.00;91.70;;;;;;20930893;23;20051;-78
2023/03/28 16:52:49;;;;;;;3.65;2.28;;;11.80;92.70;;;;;;20834197;28;20033;-79
2023/03/28 17:02:49;;;;;;;6.03;2.53;;;11.30;93.70;;;;;;20786638;28;20042;-78
2023/03/28 17:12:51;;;;;;;4.50;2.53;;;11.00;93.80;;;;;;20782374;28;20037;-78
2023/03/28 17:22:52;;;;;;;5.18;2.40;;;10.80;94.10;;;;;;20778644;28;20050;-77
2023/03/28 17:32:53;;;;;;;5.00;2.40;;;10.80;94.60;;;;;;20768368;28;20069;-77
2023/03/28 17:42:54;;;;;;;6.70;3.00;;;10.50;94.90;;;;;;20778303;28;20288;-78
2023/03/28 17:52:54;;;;;;;4.27;2.10;;;10.10;98.50;;;;;;20793622;28;20037;-78
2023/03/28 18:02:55;;;;;;;3.03;1.80;;;8.90;99.90;;;;;;20796883;28;20055;-77
2023/03/28 18:13:17;;;;;;;6.27;2.50;;;8.70;99.90;;;;;;20768672;28;20080;-78
2023/03/28 18:23:17;;;;;;;3.23;1.97;;;8.30;99.90;;;;;;20771643;28;20037;-78
2023/03/28 18:33:20;;;;;;;5.97;2.00;;;7.80;99.90;;;;;;20793768;28;20029;-77
2023/03/28 18:43:21;;;;;;;2.90;2.25;;;6.90;99.90;;;;;;20789095;28;20043;-77
2023/03/28 18:53:23;;;;;;;7.63;3.80;;;7.40;99.90;;;;;;20788827;28;20037;-77
2023/03/28 19:03:26;;;;;;;10.60;4.07;;;7.90;99.90;;;;;;20780602;28;20115;-78
2023/03/28 19:13:28;;;;;;;12.15;4.40;;;8.20;99.90;;;;;;20781787;28;20053;-77
2023/03/28 19:23:29;;;;;;;5.13;2.90;;;8.00;99.90;;;;;;20785073;28;20034;-78
2023/03/28 19:33:29;;;;;;;5.77;2.70;;;7.80;99.90;;;;;;20787184;28;20439;-77
2023/03/28 19:43:30;;;;;;;6.73;2.63;;;7.60;99.90;;;;;;20785572;28;20052;-77
2023/03/28 19:53:31;;;;;;;3.50;2.37;;;7.60;99.90;;;;;;20785582;28;20613;-77
2023/03/28 20:03:32;;;;;;;3.83;2.22;;;7.20;99.90;;;;;;20778839;28;20039;-77
2023/03/28 20:13:33;;;;;;;3.80;2.47;;;7.10;99.90;;;;;;20764515;28;20084;-76
2023/03/28 20:23:34;;;;;;;4.32;2.25;;;7.40;99.90;;;;;;20784749;28;20064;-76
2023/03/28 20:33:37;;;;;;;2.90;2.05;;;7.20;99.90;;;;;;20768166;28;20033;-77
2023/03/28 20:43:39;;;;;;;3.08;2.20;;;7.00;99.90;;;;;;20766958;28;20125;-76
2023/03/28 20:53:53;;;;;;;6.05;2.20;;;7.00;99.90;;;;;;20767528;28;20060;-76
2023/03/28 21:03:57;;;;;;;5.70;3.00;;;7.00;99.90;;;;;;20766434;28;20033;-77
2023/03/28 21:13:59;;;;;;;4.70;2.42;;;6.90;99.90;;;;;;20766343;28;20112;-76
2023/03/28 21:24:01;;;;;;;5.60;2.15;;;6.70;99.90;;;;;;20776061;28;20033;-77
2023/03/28 21:34:02;;;;;;;9.55;3.35;;;6.90;99.90;;;;;;20780349;28;20037;-77
2023/03/28 21:44:03;;;;;;;4.20;2.30;;;6.90;99.90;;;;;;20777235;28;20061;-78
2023/03/28 21:54:04;;;;;;;4.00;2.63;;;6.90;99.90;;;;;;20776721;28;20048;-77
2023/03/28 22:04:05;;;;;;;;;;;6.70;99.90;;;;;;20777528;28;20148;-78
2023/03/28 22:14:06;;;;;;;6.43;2.45;;;6.70;99.90;;;;;;20777746;28;19963;-77
2023/03/28 22:24:11;;;;;;;;;;;6.70;99.90;;;;;;20777630;28;20037;-78
2023/03/28 22:34:15;;;;;;;8.85;2.75;;;6.80;99.90;;;;;;20777223;28;19930;-78
2023/03/28 22:44:20;;;;;;;6.03;2.65;;;6.60;99.90;;;;;;20831035;23;20447;-81
2023/03/28 22:54:23;;;;;;;8.13;3.13;;;6.70;99.90;;;;;;20871785;28;20030;-81
2023/03/28 23:04:26;;;;;;;4.25;2.78;;;6.70;99.90;;;;;;20836547;28;20029;-82
2023/03/28 23:14:27;;;;;;;4.18;2.70;;;6.50;99.90;;;;;;20834962;28;20412;-80
2023/03/28 23:24:28;;;;;;;5.57;3.10;;;6.40;99.90;;;;;;20848139;28;20040;-80
2023/03/28 23:34:28;;;;;;;6.53;3.10;;;6.60;99.90;;;;;;20827931;28;20159;-79
2023/03/28 23:44:30;;;;;;;4.03;2.42;;;6.70;99.90;;;;;;20850551;28;20757;-79
2023/03/28 23:54:30;;;;;;;4.53;2.83;;;6.60;99.90;;;;;;20837795;28;20062;-79
